Terminal Aerodrome Forecast
Issued by NWS

Home | Current Version | Previous Version | Graphics & Text | Print | Product List | Glossary On
Versions: 1 2 3 4 5 6 7 8 9 10 11 12 13 14 15 16 17 18 19 20 21 22 23 24 25 26 27 28 29 30 31
191
FTUS43 KLOT 290314 AAC
TAFORD
TAF AMD
KORD 290314Z 2903/3006 27012G20KT P6SM VCTS OVC100CB
      TEMPO 2903/2905 -TSRA OVC050CB
     FM290500 20010KT P6SM SCT250
     FM291500 23014G22KT P6SM SCT050
     FM292100 27014G22KT P6SM FEW060
     FM300200 24006KT P6SM SKC=

USA.gov is the U.S. government's official web portal to all federal, state and local government web resources and services.